Time;durP1;ratioP1;P1;durP2;ratioP2;P2;SDS_P1;SDS_P2;PMS_P1;PMS_P2;Temp;Humidity;BMP_temperature;BMP_pressure;BME280_temperature;BME280_humidity;BME280_pressure;Samples;Min_cycle;Max_cycle;Signal;HPM_P1;HPM_P2
2024/02/06 00:01:50;;;;;;;5.35;3.30;;;;;;;15.23;32.29;99893.59;4955186;29;20118;-26
2024/02/06 00:04:16;;;;;;;3.75;2.50;;;;;;;15.32;32.01;99896.75;4955144;29;20031;-26
2024/02/06 00:06:42;;;;;;;3.50;2.70;;;;;;;15.34;32.08;99897.31;4954729;28;20073;-26
2024/02/06 00:09:08;;;;;;;4.43;2.78;;;;;;;15.11;32.26;99906.13;4955083;29;20054;-26
2024/02/06 00:11:34;;;;;;;4.80;2.72;;;;;;;15.30;32.27;99908.75;4954617;29;20459;-27
2024/02/06 00:13:59;;;;;;;4.32;2.70;;;;;;;15.07;32.48;99910.31;4954914;29;20023;-26
2024/02/06 00:16:25;;;;;;;4.10;2.67;;;;;;;15.05;32.48;99912.41;4954418;29;20507;-26
2024/02/06 00:18:50;;;;;;;5.13;2.63;;;;;;;15.02;32.36;99916.38;4954408;29;20031;-27
2024/02/06 00:21:16;;;;;;;6.50;2.72;;;;;;;14.92;32.92;99923.31;4954103;29;20166;-26
2024/02/06 00:23:41;;;;;;;4.82;2.60;;;;;;;14.44;33.61;99917.72;4953932;29;20034;-28
2024/02/06 00:26:07;;;;;;;5.28;2.90;;;;;;;14.44;33.36;99923.06;4954080;29;20035;-26
2024/02/06 00:28:33;;;;;;;4.95;2.72;;;;;;;14.55;33.71;99912.66;4954222;29;20419;-26
2024/02/06 00:30:58;;;;;;;3.78;2.50;;;;;;;14.64;33.40;99922.88;4954377;29;20035;-26
2024/02/06 00:33:24;;;;;;;6.40;2.78;;;;;;;14.57;33.69;99932.84;4954117;28;20118;-26
2024/02/06 00:35:49;;;;;;;6.78;2.47;;;;;;;14.55;33.53;99934.09;4954302;29;20023;-26
2024/02/06 00:38:14;;;;;;;4.05;2.67;;;;;;;14.50;34.37;99929.41;4954305;29;20029;-26
2024/02/06 00:40:40;;;;;;;4.35;2.78;;;;;;;14.54;33.61;99925.22;4954180;29;20490;-25
2024/02/06 00:43:06;;;;;;;5.43;2.92;;;;;;;14.81;32.87;99932.94;4954160;29;20035;-27
2024/02/06 00:45:31;;;;;;;4.07;2.85;;;;;;;14.74;33.01;99926.88;4954202;29;20039;-28
2024/02/06 00:47:56;;;;;;;3.83;2.65;;;;;;;14.53;33.58;99923.59;4953854;29;20396;-28
2024/02/06 00:50:22;;;;;;;5.10;2.72;;;;;;;14.72;33.05;99924.44;4953378;29;20027;-27
2024/02/06 00:52:47;;;;;;;3.90;2.63;;;;;;;14.70;33.23;99918.47;4953992;29;20452;-26
2024/02/06 00:55:13;;;;;;;4.20;2.70;;;;;;;14.65;33.37;99919.13;4953670;29;20086;-26
2024/02/06 00:57:39;;;;;;;4.50;2.67;;;;;;;14.98;32.97;99920.56;4953642;29;20444;-27
2024/02/06 01:00:07;;;;;;;4.28;2.75;;;;;;;14.95;33.00;99917.53;4953282;29;20046;-27
2024/02/06 01:02:32;;;;;;;4.55;2.70;;;;;;;14.92;32.89;99917.97;4953252;29;20118;-27
2024/02/06 01:04:57;;;;;;;5.72;2.60;;;;;;;14.80;32.70;99920.59;4936103;29;20109;-27
2024/02/06 01:07:23;;;;;;;4.50;2.67;;;;;;;14.74;32.69;99922.34;4953451;29;20090;-27
2024/02/06 01:09:48;;;;;;;6.97;2.80;;;;;;;14.65;32.79;99911.09;4953552;29;20031;-27
2024/02/06 01:12:14;;;;;;;4.88;2.72;;;;;;;14.76;32.63;99906.84;4953599;29;20472;-26
2024/02/06 01:14:39;;;;;;;4.35;2.65;;;;;;;15.01;32.52;99913.94;4953337;29;20159;-26
2024/02/06 01:17:05;;;;;;;6.55;2.85;;;;;;;15.07;32.07;99910.31;4953037;28;20027;-27
2024/02/06 01:19:31;;;;;;;4.95;2.83;;;;;;;14.93;32.49;99904.34;4953482;29;20110;-27
2024/02/06 01:21:56;;;;;;;7.00;3.17;;;;;;;15.08;31.90;99906.63;4953665;29;20027;-27
2024/02/06 01:24:25;;;;;;;8.18;3.30;;;;;;;14.80;32.25;99901.84;4953328;29;20030;-27
2024/02/06 01:26:50;;;;;;;6.50;3.28;;;;;;;15.04;32.23;99914.28;4953350;29;20051;-27
2024/02/06 01:29:16;;;;;;;5.63;3.17;;;;;;;15.07;32.17;99907.66;4953426;29;20118;-26
2024/02/06 01:31:41;;;;;;;5.90;3.40;;;;;;;15.15;32.26;99909.19;4953532;29;20464;-27
2024/02/06 01:34:07;;;;;;;5.20;3.08;;;;;;;15.22;31.65;99908.03;4952732;29;20113;-27
2024/02/06 01:36:36;;;;;;;7.60;3.70;;;;;;;15.21;32.04;99918.97;4953199;29;20031;-27
2024/02/06 01:39:02;;;;;;;6.30;3.17;;;;;;;15.21;32.20;99916.28;4953084;29;20411;-26
2024/02/06 01:41:27;;;;;;;5.85;3.45;;;;;;;15.14;31.40;99911.06;4953056;29;20518;-26
2024/02/06 01:43:53;;;;;;;4.72;2.85;;;;;;;15.01;31.38;99911.25;4952997;29;20110;-27
2024/02/06 01:46:19;;;;;;;6.00;3.10;;;;;;;15.23;31.29;99915.03;4953126;29;20140;-27
2024/02/06 01:48:46;;;;;;;4.55;2.97;;;;;;;15.13;31.19;99919.31;4953296;29;20114;-27
2024/02/06 01:51:11;;;;;;;5.35;2.72;;;;;;;15.27;31.22;99922.59;4943886;29;20027;-28
2024/02/06 01:53:37;;;;;;;6.22;3.00;;;;;;;15.25;30.96;99914.81;4934059;29;20024;-27
2024/02/06 01:56:04;;;;;;;4.75;2.83;;;;;;;15.10;31.01;99914.41;4933639;29;20707;-26
2024/02/06 01:58:29;;;;;;;6.28;3.03;;;;;;;15.13;31.37;99922.81;4933472;29;20477;-26
2024/02/06 02:00:55;;;;;;;5.13;2.72;;;;;;;15.31;30.32;99924.63;4933879;29;20087;-26
2024/02/06 02:03:21;;;;;;;5.50;2.90;;;;;;;15.37;31.24;99914.84;4933577;29;20070;-27
2024/02/06 02:05:47;;;;;;;5.55;2.72;;;;;;;15.13;30.69;99914.75;4951994;29;20050;-27
2024/02/06 02:08:14;;;;;;;5.80;2.80;;;;;;;14.96;30.66;99889.66;4952554;29;20019;-27
2024/02/06 02:10:40;;;;;;;9.35;2.85;;;;;;;15.14;30.51;99919.09;4952578;29;20050;-27
2024/02/06 02:13:06;;;;;;;4.47;2.90;;;;;;;15.43;30.66;99919.28;4952340;29;20106;-27
2024/02/06 02:15:31;;;;;;;4.15;2.83;;;;;;;15.43;30.08;99919.28;4952297;29;20118;-29
2024/02/06 02:17:57;;;;;;;4.43;2.60;;;;;;;15.34;30.04;99917.97;4952781;29;20055;-27
2024/02/06 02:20:22;;;;;;;4.75;2.90;;;;;;;15.50;29.75;99919.16;4935243;29;20035;-26
2024/02/06 02:22:47;;;;;;;5.88;2.70;;;;;;;15.49;29.82;99925.56;4952381;29;20031;-27
2024/02/06 02:25:13;;;;;;;4.28;2.70;;;;;;;15.30;30.76;99927.53;4952592;29;20031;-26
2024/02/06 02:27:39;;;;;;;4.90;2.67;;;;;;;15.49;30.39;99928.25;4952802;28;20067;-26
2024/02/06 02:30:06;;;;;;;3.95;2.50;;;;;;;15.27;29.60;99922.59;4954986;29;20451;-27
2024/02/06 02:32:33;;;;;;;4.10;2.80;;;;;;;15.39;30.37;99912.75;4954614;29;20035;-27
2024/02/06 02:34:58;;;;;;;6.30;2.97;;;;;;;15.24;30.56;99927.38;4956346;29;20086;-27
2024/02/06 02:37:24;;;;;;;5.43;2.80;;;;;;;15.11;30.28;99916.06;4956227;29;20031;-26
2024/02/06 02:39:50;;;;;;;4.05;2.58;;;;;;;15.30;29.40;99919.47;4956188;29;20034;-27
2024/02/06 02:42:15;;;;;;;3.83;2.70;;;;;;;15.35;29.42;99924.97;4955985;29;20019;-27
2024/02/06 02:44:41;;;;;;;4.28;2.70;;;;;;;15.38;29.40;99937.91;4956151;29;20050;-27
2024/02/06 02:47:06;;;;;;;4.85;2.40;;;;;;;15.58;28.73;99934.91;4955997;29;20034;-26
2024/02/06 02:49:32;;;;;;;4.68;2.70;;;;;;;15.73;29.21;99931.78;4956027;29;20102;-26
2024/02/06 02:51:57;;;;;;;4.13;2.80;;;;;;;15.61;28.50;99937.13;4956034;29;20038;-27
2024/02/06 02:54:27;;;;;;;3.40;2.30;;;;;;;15.37;28.52;99952.38;4956269;29;20431;-27
2024/02/06 02:56:54;;;;;;;4.72;2.55;;;;;;;15.81;28.86;99942.19;4956437;29;20059;-26
2024/02/06 02:59:19;;;;;;;4.65;2.50;;;;;;;15.51;28.64;99961.81;4956456;29;20130;-26
2024/02/06 03:01:44;;;;;;;4.15;2.50;;;;;;;15.61;28.32;99963.94;4956412;29;20361;-26
2024/02/06 03:04:11;;;;;;;5.65;2.60;;;;;;;15.64;28.39;99960.81;4956071;29;20078;-27
2024/02/06 03:06:37;;;;;;;4.20;2.58;;;;;;;15.52;28.72;99966.16;4956199;29;20034;-26
2024/02/06 03:09:03;;;;;;;4.47;2.40;;;;;;;15.41;28.50;99973.13;4956124;29;20501;-27
2024/02/06 03:11:28;;;;;;;4.93;2.28;;;;;;;15.28;28.50;99938.47;4956400;29;20110;-27
2024/02/06 03:13:53;;;;;;;3.05;2.20;;;;;;;15.62;27.84;99966.41;4955970;29;20035;-26
2024/02/06 03:16:19;;;;;;;4.90;2.40;;;;;;;15.73;27.73;99958.63;4955428;29;20019;-26
2024/02/06 03:18:44;;;;;;;5.53;2.47;;;;;;;15.85;27.63;99954.09;4952280;29;20066;-25
2024/02/06 03:21:10;;;;;;;4.72;2.40;;;;;;;15.90;27.37;99958.78;4936786;29;20035;-26
2024/02/06 03:23:35;;;;;;;5.97;2.45;;;;;;;15.74;27.82;99960.25;4936669;29;20020;-27
2024/02/06 03:26:01;;;;;;;5.07;2.40;;;;;;;15.62;27.08;99954.84;4948862;29;20031;-27
2024/02/06 03:28:26;;;;;;;6.68;2.38;;;;;;;15.42;27.66;99955.16;4955748;29;20042;-26
2024/02/06 03:30:52;;;;;;;4.20;2.33;;;;;;;15.72;27.86;99968.50;4955743;29;20032;-26
2024/02/06 03:33:18;;;;;;;5.53;2.38;;;;;;;15.69;27.10;99973.50;4955893;29;20057;-27
2024/02/06 03:35:43;;;;;;;4.10;2.35;;;;;;;15.62;27.58;99968.28;4955726;29;20464;-27
2024/02/06 03:38:09;;;;;;;4.68;2.25;;;;;;;15.27;28.42;99965.50;4955652;29;20019;-27
2024/02/06 03:40:34;;;;;;;3.40;2.30;;;;;;;15.32;28.50;99977.16;4955555;28;20019;-27
2024/02/06 03:42:59;;;;;;;4.93;2.65;;;;;;;15.40;28.29;99979.53;4955651;29;20395;-26
2024/02/06 03:45:25;;;;;;;4.00;2.42;;;;;;;15.75;28.14;99973.44;4955672;29;20109;-27
2024/02/06 03:47:50;;;;;;;4.40;2.30;;;;;;;15.62;27.66;99971.75;4955921;29;20029;-27
2024/02/06 03:50:16;;;;;;;6.60;2.80;;;;;;;15.89;26.87;99963.31;4955350;29;20111;-27
2024/02/06 03:52:41;;;;;;;6.05;2.60;;;;;;;15.61;27.93;99967.47;4955520;29;20031;-26
2024/02/06 03:55:07;;;;;;;4.57;2.10;;;;;;;15.42;28.36;99957.84;4955442;29;20054;-26
2024/02/06 03:57:34;;;;;;;6.05;2.70;;;;;;;15.49;27.58;99958.56;4955564;29;20134;-26
2024/02/06 03:59:59;;;;;;;3.33;2.17;;;;;;;15.62;27.29;99960.22;4955211;29;20079;-26
2024/02/06 04:02:25;;;;;;;5.20;2.50;;;;;;;15.52;27.39;99960.00;4954978;29;20035;-27
2024/02/06 04:04:50;;;;;;;3.45;2.20;;;;;;;15.48;26.99;99958.78;4955283;29;20042;-26
2024/02/06 04:07:16;;;;;;;8.00;2.38;;;;;;;15.52;27.70;99960.78;4955819;29;20456;-28
2024/02/06 04:09:41;;;;;;;6.10;2.60;;;;;;;15.55;27.36;99962.19;4955024;29;20543;-27
2024/02/06 04:12:07;;;;;;;4.45;2.35;;;;;;;15.53;27.17;99956.25;4954527;29;20027;-27
2024/02/06 04:14:33;;;;;;;4.90;2.20;;;;;;;15.54;27.62;99957.88;4954471;29;20034;-28
2024/02/06 04:16:58;;;;;;;5.78;2.53;;;;;;;15.36;27.94;99961.44;4954324;29;20491;-27
2024/02/06 04:19:24;;;;;;;5.10;2.38;;;;;;;15.33;27.22;99960.06;4954311;29;20109;-27
2024/02/06 04:21:50;;;;;;;3.50;2.20;;;;;;;15.27;28.32;99960.97;4954416;29;20081;-27
2024/02/06 04:24:15;;;;;;;4.53;2.30;;;;;;;15.20;28.11;99973.66;4954051;29;20081;-27
2024/02/06 04:26:41;;;;;;;5.90;2.40;;;;;;;15.03;28.15;99966.25;4954256;29;20028;-27
2024/02/06 04:29:06;;;;;;;3.75;2.20;;;;;;;14.93;28.56;99962.50;4954012;29;20062;-28
2024/02/06 04:31:32;;;;;;;7.60;2.45;;;;;;;15.11;28.11;99961.63;4954206;29;20043;-28
2024/02/06 04:33:57;;;;;;;5.53;2.30;;;;;;;15.07;28.47;99957.75;4953695;29;20553;-27
2024/02/06 04:36:23;;;;;;;4.65;2.80;;;;;;;15.00;28.10;99961.34;4954205;29;20027;-28
2024/02/06 04:38:49;;;;;;;4.80;2.70;;;;;;;15.05;28.30;99966.03;4954364;29;20110;-28
2024/02/06 04:41:14;;;;;;;5.38;2.72;;;;;;;14.96;28.61;99959.34;4954516;29;20030;-27
2024/02/06 04:43:40;;;;;;;3.92;2.50;;;;;;;14.75;27.97;99960.66;4954539;29;20019;-27
2024/02/06 04:46:07;;;;;;;5.38;2.47;;;;;;;14.74;28.65;99949.13;4953963;29;20488;-26
2024/02/06 04:48:32;;;;;;;4.57;2.33;;;;;;;15.06;27.67;99962.31;4953461;29;20102;-26
2024/02/06 04:50:57;;;;;;;5.18;2.55;;;;;;;15.14;28.09;99963.84;4941094;28;20600;-27
2024/02/06 04:53:23;;;;;;;2.95;2.00;;;;;;;15.03;28.36;99962.75;4952998;29;20019;-27
2024/02/06 04:55:48;;;;;;;4.20;2.15;;;;;;;15.05;27.78;99963.34;4953464;29;20019;-26
2024/02/06 04:58:14;;;;;;;3.50;2.17;;;;;;;14.98;28.26;99967.97;4953610;29;20106;-27
2024/02/06 05:00:39;;;;;;;4.15;2.22;;;;;;;15.01;28.14;99976.38;4953682;29;20039;-26
2024/02/06 05:03:05;;;;;;;5.13;2.13;;;;;;;15.05;27.91;99982.09;4953919;29;20411;-26
2024/02/06 05:05:30;;;;;;;4.45;2.40;;;;;;;14.69;28.25;99983.78;4954134;29;20106;-28
2024/02/06 05:07:56;;;;;;;4.00;2.00;;;;;;;14.83;28.44;99987.13;4954079;29;20029;-28
2024/02/06 05:10:22;;;;;;;3.55;2.10;;;;;;;14.74;28.36;99986.63;4953636;29;20047;-27
2024/02/06 05:12:47;;;;;;;4.32;2.25;;;;;;;14.82;28.09;99988.97;4953785;29;20057;-26
2024/02/06 05:15:13;;;;;;;5.25;2.17;;;;;;;14.82;28.29;99988.19;4953510;29;20114;-27
2024/02/06 05:17:40;;;;;;;4.25;2.08;;;;;;;14.65;28.75;99987.97;4953705;29;20030;-26
2024/02/06 05:20:08;;;;;;;4.35;2.30;;;;;;;14.72;28.43;99994.06;4953868;29;20058;-27
2024/02/06 05:22:34;;;;;;;5.38;2.30;;;;;;;14.62;28.63;99989.25;4953747;29;20117;-28
2024/02/06 05:24:59;;;;;;;7.30;2.30;;;;;;;14.78;27.91;99992.34;4953434;29;20496;-27
2024/02/06 05:27:25;;;;;;;3.25;2.10;;;;;;;14.54;28.47;99999.38;4953484;29;20479;-27
2024/02/06 05:29:50;;;;;;;4.72;2.10;;;;;;;14.70;28.38;100004.19;4953578;29;20499;-27
2024/02/06 05:32:16;;;;;;;3.78;2.10;;;;;;;14.97;28.13;100003.88;4953413;29;20448;-27
2024/02/06 05:34:41;;;;;;;3.22;2.08;;;;;;;14.63;27.97;100001.56;4953224;29;20055;-27
2024/02/06 05:37:06;;;;;;;6.03;2.50;;;;;;;14.75;28.53;99998.16;4953514;29;20050;-27
2024/02/06 05:39:32;;;;;;;5.18;2.38;;;;;;;14.83;28.04;100006.72;4953522;29;20146;-26
2024/02/06 05:41:58;;;;;;;4.78;2.47;;;;;;;14.77;28.60;100004.91;4953466;29;20476;-28
2024/02/06 05:44:23;;;;;;;6.15;2.13;;;;;;;14.58;28.19;100000.59;4953048;29;20027;-28
2024/02/06 05:46:49;;;;;;;3.58;2.10;;;;;;;14.80;27.84;99996.44;4952881;29;20121;-26
2024/02/06 05:49:14;;;;;;;5.25;2.60;;;;;;;14.45;28.84;99988.97;4952988;29;20101;-27
2024/02/06 05:51:39;;;;;;;3.70;2.25;;;;;;;14.75;28.86;99998.97;4952872;29;20034;-26
2024/02/06 05:54:05;;;;;;;3.55;2.08;;;;;;;14.53;28.76;99985.19;4953056;29;20019;-28
2024/02/06 05:56:30;;;;;;;4.63;2.60;;;;;;;14.68;28.63;100000.91;4953329;29;20062;-27
2024/02/06 05:58:56;;;;;;;5.20;2.40;;;;;;;14.41;28.52;100001.19;4953449;29;20039;-28
2024/02/06 06:01:21;;;;;;;5.00;2.45;;;;;;;14.48;28.80;99995.75;4953095;29;20106;-28
2024/02/06 06:03:48;;;;;;;6.57;2.60;;;;;;;14.51;28.30;99992.63;4953198;29;20027;-27
2024/02/06 06:06:13;;;;;;;3.70;2.30;;;;;;;14.43;30.04;99993.75;4952918;29;20032;-27
2024/02/06 06:08:39;;;;;;;7.18;2.90;;;;;;;14.53;30.17;99995.91;4953454;29;20501;-29
2024/02/06 06:11:04;;;;;;;5.07;2.35;;;;;;;14.75;28.34;99998.97;4953612;29;20031;-27
2024/02/06 06:13:29;;;;;;;5.22;2.22;;;;;;;14.82;29.08;100009.59;4950958;29;20110;-27
2024/02/06 06:15:55;;;;;;;5.53;2.40;;;;;;;14.88;28.92;99999.84;4952269;29;20024;-27
2024/02/06 06:18:20;;;;;;;7.05;2.78;;;;;;;15.05;28.52;99995.50;4953428;29;20023;-27
2024/02/06 06:20:45;;;;;;;5.90;2.63;;;;;;;15.06;28.19;99994.47;4952953;29;20444;-27
2024/02/06 06:23:11;;;;;;;6.47;2.50;;;;;;;15.27;27.68;100000.34;4953062;29;20030;-27
2024/02/06 06:25:36;;;;;;;5.53;2.58;;;;;;;15.33;28.34;100010.19;4952587;29;20507;-27
2024/02/06 06:28:04;;;;;;;5.00;2.58;;;;;;;15.87;27.12;100012.91;4953242;29;20050;-27
2024/02/06 06:30:29;;;;;;;4.38;2.40;;;;;;;15.57;27.60;100019.94;4948805;29;20027;-27
2024/02/06 06:32:54;;;;;;;5.95;2.40;;;;;;;15.73;27.88;100010.44;4945611;29;20184;-28
2024/02/06 06:35:20;;;;;;;6.32;2.50;;;;;;;15.84;27.74;100011.50;4943995;29;20024;-28
2024/02/06 06:37:45;;;;;;;3.95;2.50;;;;;;;16.08;27.14;100006.94;4941293;29;20366;-26
2024/02/06 06:40:11;;;;;;;7.53;2.63;;;;;;;16.40;27.78;99996.66;4938607;29;20031;-29
2024/02/06 06:42:37;;;;;;;5.65;2.72;;;;;;;16.29;27.65;100010.91;4949757;29;20055;-29
2024/02/06 06:45:02;;;;;;;5.50;2.40;;;;;;;16.25;28.15;100009.75;4952485;29;20123;-28
2024/02/06 06:47:29;;;;;;;5.22;2.30;;;;;;;16.40;27.55;100009.28;4952946;29;20034;-27
2024/02/06 06:49:55;;;;;;;4.78;2.33;;;;;;;16.92;26.93;100006.63;4952587;29;20031;-28
2024/02/06 06:52:20;;;;;;;4.82;2.85;;;;;;;16.73;27.51;100007.81;4944502;29;20043;-28
2024/02/06 06:54:45;;;;;;;5.40;2.50;;;;;;;17.00;26.96;100011.63;4952684;29;20019;-27
2024/02/06 06:57:11;;;;;;;3.95;2.50;;;;;;;17.20;26.73;100008.50;4952579;29;20412;-28
2024/02/06 06:59:36;;;;;;;5.57;3.00;;;;;;;17.42;26.66;100007.84;4952393;29;20031;-28
2024/02/06 07:02:01;;;;;;;5.28;2.78;;;;;;;17.57;26.55;100013.47;4951905;29;20019;-29
2024/02/06 07:04:28;;;;;;;8.10;2.53;;;;;;;17.75;26.50;100012.41;4952154;29;20028;-27
2024/02/06 07:06:54;;;;;;;8.10;2.80;;;;;;;18.28;26.12;100014.88;4952424;29;20119;-26
2024/02/06 07:09:21;;;;;;;8.88;3.53;;;;;;;18.17;26.66;100020.09;4952306;29;20027;-27
2024/02/06 07:11:48;;;;;;;8.70;3.33;;;;;;;18.16;26.51;100014.94;4952347;29;20027;-28
2024/02/06 07:14:14;;;;;;;9.10;3.10;;;;;;;18.56;26.54;100022.81;4952384;28;20063;-27
2024/02/06 07:16:39;;;;;;;10.45;2.72;;;;;;;18.71;26.17;100000.59;4955032;29;20027;-28
2024/02/06 07:19:06;;;;;;;6.05;2.90;;;;;;;18.93;25.88;100008.72;4956156;29;20384;-27
2024/02/06 07:21:31;;;;;;;6.93;2.35;;;;;;;19.06;25.51;100018.31;4956536;29;20023;-27
2024/02/06 07:23:57;;;;;;;7.95;2.70;;;;;;;18.83;25.43;100013.16;4956175;29;20479;-28
2024/02/06 07:26:22;;;;;;;8.38;3.75;;;;;;;18.62;25.26;100023.69;4956298;29;20031;-27
2024/02/06 07:28:47;;;;;;;10.68;2.80;;;;;;;18.38;25.70;100017.69;4954210;29;20019;-29
2024/02/06 07:31:16;;;;;;;4.95;2.70;;;;;;;18.69;25.09;100018.91;4951983;29;20031;-28
2024/02/06 07:33:42;;;;;;;5.93;2.60;;;;;;;18.85;25.10;100016.44;4950554;29;20460;-28
2024/02/06 07:36:07;;;;;;;12.10;2.90;;;;;;;19.12;24.63;100005.69;4951804;29;20258;-28
2024/02/06 07:38:33;;;;;;;6.95;2.78;;;;;;;19.81;23.66;100007.69;4950353;29;20050;-28
2024/02/06 07:40:59;;;;;;;5.57;3.10;;;;;;;19.88;23.54;100011.00;4948269;29;20123;-27
2024/02/06 07:43:25;;;;;;;5.35;2.58;;;;;;;20.18;23.19;100004.19;4947809;29;20020;-28
2024/02/06 07:45:51;;;;;;;8.18;2.63;;;;;;;20.29;22.83;99992.34;4941878;29;20023;-27
2024/02/06 07:48:18;;;;;;;5.07;2.70;;;;;;;20.33;23.24;99997.25;4948005;29;20015;-28
2024/02/06 07:50:43;;;;;;;5.38;2.50;;;;;;;20.97;22.18;100001.59;4955366;29;20097;-27
2024/02/06 07:53:10;;;;;;;4.80;2.50;;;;;;;21.22;22.56;100006.25;4949674;29;20170;-28
2024/02/06 07:55:35;;;;;;;6.40;2.58;;;;;;;21.25;22.15;100005.75;4952587;29;20066;-27
2024/02/06 07:58:00;;;;;;;6.47;2.15;;;;;;;21.21;22.26;100005.47;4947295;29;20464;-28
2024/02/06 08:00:26;;;;;;;5.03;2.45;;;;;;;21.57;21.68;99986.59;4949952;29;20019;-29
2024/02/06 08:02:51;;;;;;;8.90;2.70;;;;;;;21.57;21.68;100004.72;4949688;29;20117;-26
2024/02/06 08:05:16;;;;;;;7.38;2.55;;;;;;;21.02;22.53;99993.53;4949800;29;20102;-27
2024/02/06 08:07:42;;;;;;;7.07;2.60;;;;;;;21.08;22.60;99995.16;4947543;29;20492;-27
2024/02/06 08:10:08;;;;;;;5.40;2.00;;;;;;;20.77;22.84;99996.94;4952675;29;20030;-28
2024/02/06 08:12:33;;;;;;;3.90;2.30;;;;;;;20.85;22.23;99988.31;4953886;29;20078;-28
2024/02/06 08:15:01;;;;;;;3.72;2.15;;;;;;;21.04;22.33;99986.75;4942609;29;20109;-26
2024/02/06 08:17:27;;;;;;;5.13;2.00;;;;;;;21.26;21.89;99988.41;4949075;29;20071;-28
2024/02/06 08:19:52;;;;;;;6.63;2.50;;;;;;;21.15;22.13;99984.88;4948803;29;20515;-27
2024/02/06 08:22:17;;;;;;;6.75;2.38;;;;;;;20.80;22.11;99989.09;4945021;29;20031;-28
2024/02/06 08:24:43;;;;;;;6.82;2.70;;;;;;;21.17;21.61;99990.00;4949766;29;20384;-27
2024/02/06 08:27:08;;;;;;;6.72;2.50;;;;;;;21.51;21.51;99984.94;4948118;28;20098;-40
2024/02/06 08:29:35;;;;;;;6.47;2.55;;;;;;;22.02;21.75;100000.38;4951544;29;20031;-39
2024/02/06 08:32:00;;;;;;;4.47;1.83;;;;;;;21.70;21.27;99995.25;4946125;29;20027;-40
2024/02/06 08:34:25;;;;;;;5.65;2.30;;;;;;;22.11;21.34;100000.63;4949387;29;20054;-40
2024/02/06 08:36:51;;;;;;;4.20;2.17;;;;;;;22.17;21.22;100000.34;4949122;29;20042;-39
2024/02/06 08:39:16;;;;;;;6.47;2.20;;;;;;;21.99;20.94;99987.34;4951179;29;20028;-37
2024/02/06 08:41:42;;;;;;;5.22;2.40;;;;;;;22.14;21.15;99994.66;4949198;29;20591;-39
2024/02/06 08:44:08;;;;;;;5.32;2.42;;;;;;;22.19;20.81;99998.16;4950133;29;20211;-40
2024/02/06 08:46:34;;;;;;;4.72;2.15;;;;;;;22.51;20.67;99994.31;4943606;29;20046;-40
2024/02/06 08:49:00;;;;;;;5.60;2.28;;;;;;;22.22;20.69;99997.63;4943878;29;20483;-38
2024/02/06 08:51:25;;;;;;;4.72;2.08;;;;;;;22.28;20.90;100000.38;4954348;29;20035;-39
2024/02/06 08:53:51;;;;;;;5.47;2.00;;;;;;;22.01;20.53;99993.34;4954159;29;20031;-38
2024/02/06 08:56:16;;;;;;;4.50;2.13;;;;;;;22.25;20.67;99999.00;4954039;29;20031;-35
2024/02/06 08:58:41;;;;;;;8.52;2.40;;;;;;;21.96;20.89;99994.13;4953887;29;20050;-40
2024/02/06 09:01:07;;;;;;;2.90;1.90;;;;;;;22.53;20.76;100000.28;4954106;29;20034;-38
2024/02/06 09:03:32;;;;;;;7.47;2.30;;;;;;;22.55;20.64;99995.38;4954043;29;20504;-43
2024/02/06 09:05:58;;;;;;;5.70;2.38;;;;;;;22.74;20.53;100008.34;4954042;29;20038;-42
2024/02/06 09:08:23;;;;;;;3.67;2.50;;;;;;;22.91;20.33;100000.66;4953720;29;20023;-40
2024/02/06 09:10:49;;;;;;;6.65;2.58;;;;;;;23.12;20.90;100000.56;4953678;29;20033;-42
2024/02/06 09:13:14;;;;;;;4.10;2.38;;;;;;;22.82;21.23;100003.13;4953276;29;20562;-40
2024/02/06 09:15:39;;;;;;;5.90;2.70;;;;;;;23.27;23.98;100005.09;4943585;29;20062;-40
2024/02/06 09:18:05;;;;;;;7.78;2.30;;;;;;;22.91;20.89;100005.28;4953136;29;20029;-40
2024/02/06 09:20:30;;;;;;;8.73;2.60;;;;;;;22.41;21.95;99997.06;4953677;29;20031;-39
2024/02/06 09:22:55;;;;;;;4.80;2.33;;;;;;;23.03;22.03;99995.72;4953160;29;20023;-37
2024/02/06 09:25:21;;;;;;;6.18;2.33;;;;;;;23.41;23.16;99998.72;4953460;29;20027;-40
2024/02/06 09:27:47;;;;;;;5.18;2.40;;;;;;;23.71;20.10;99986.00;4953437;29;20462;-40
2024/02/06 09:30:12;;;;;;;4.22;2.10;;;;;;;23.34;20.45;99983.84;4953723;29;20046;-39
2024/02/06 09:32:40;;;;;;;6.25;2.28;;;;;;;23.39;20.32;99984.63;4953406;29;20019;-43
2024/02/06 09:35:07;;;;;;;6.15;2.22;;;;;;;23.07;20.85;99987.03;4953409;29;20058;-29
2024/02/06 09:37:33;;;;;;;4.80;2.10;;;;;;;23.23;21.14;99966.84;4953134;28;20023;-28
2024/02/06 09:39:59;;;;;;;4.22;2.28;;;;;;;23.47;19.95;99976.97;4953754;29;20124;-28
2024/02/06 09:42:25;;;;;;;8.38;2.20;;;;;;;23.77;20.24;99973.19;4953749;29;20019;-27
2024/02/06 09:44:51;;;;;;;7.57;2.92;;;;;;;24.51;19.93;99971.09;4953575;29;20027;-28
2024/02/06 09:47:16;;;;;;;4.43;2.55;;;;;;;24.54;19.60;99967.81;4953382;29;20022;-27
2024/02/06 09:49:44;;;;;;;9.95;2.22;;;;;;;24.18;19.37;99964.69;4953186;29;20034;-26
2024/02/06 09:52:22;;;;;;;3.75;2.08;;;;;;;24.24;19.74;99959.97;4951857;29;20027;-28
2024/02/06 09:54:49;;;;;;;5.88;1.98;;;;;;;25.10;18.64;99946.38;4945945;29;20018;-30
2024/02/06 09:57:20;;;;;;;4.68;2.20;;;;;;;25.03;18.37;99943.22;4951126;29;20440;-28
2024/02/06 09:59:49;;;;;;;7.10;2.00;;;;;;;24.70;18.26;99941.22;4951613;29;20106;-27
2024/02/06 10:02:16;;;;;;;6.15;2.30;;;;;;;25.82;17.66;99942.50;4938751;29;20024;-32
2024/02/06 10:04:43;;;;;;;5.25;2.40;;;;;;;26.06;17.23;99921.34;4933144;29;20110;-28
2024/02/06 10:07:11;;;;;;;6.15;2.00;;;;;;;25.36;17.19;99931.28;4933430;29;20019;-27
2024/02/06 10:09:39;;;;;;;5.38;1.80;;;;;;;25.19;17.39;99928.28;4932898;29;20027;-27
2024/02/06 10:12:06;;;;;;;4.47;2.08;;;;;;;25.81;17.43;99930.78;4949217;29;20082;-27
2024/02/06 10:14:31;;;;;;;3.67;1.85;;;;;;;26.65;16.60;99923.44;4952261;29;20016;-30
2024/02/06 10:16:56;;;;;;;4.95;1.92;;;;;;;25.33;16.71;99904.63;4952381;29;20038;-29
2024/02/06 10:19:35;;;;;;;5.45;1.83;;;;;;;25.17;17.16;99911.44;4952263;29;20558;-28
2024/02/06 10:22:01;;;;;;;4.15;1.90;;;;;;;25.04;17.22;99896.66;4951939;29;20496;-27
2024/02/06 10:24:29;;;;;;;6.50;2.05;;;;;;;25.04;16.98;99901.28;4952495;29;20030;-27
2024/02/06 10:27:02;;;;;;;7.43;1.90;;;;;;;24.92;17.17;99893.56;4952595;29;20515;-28
2024/02/06 10:29:28;;;;;;;5.50;1.73;;;;;;;25.04;16.89;99896.66;4952871;29;20046;-27
2024/02/06 10:31:58;;;;;;;3.90;1.80;;;;;;;25.48;16.84;99892.69;4935639;29;20364;-29
2024/02/06 10:34:25;;;;;;;4.53;1.67;;;;;;;25.48;16.87;99881.78;4952633;29;20079;-29
2024/02/06 10:37:01;;;;;;;4.13;1.63;;;;;;;25.63;16.62;99883.44;4952958;29;20078;-27
2024/02/06 10:39:30;;;;;;;5.25;1.90;;;;;;;25.70;16.34;99883.00;4944828;29;20130;-28
2024/02/06 10:42:02;;;;;;;;;;;;;;;25.42;16.25;99876.72;4946977;29;20047;-28
2024/02/06 10:44:28;;;;;;;4.10;1.60;;;;;;;25.81;16.17;99870.81;4949297;29;20307;-29
2024/02/06 10:47:01;;;;;;;5.22;1.65;;;;;;;25.87;16.68;99868.81;4946343;29;20043;-28
2024/02/06 10:49:27;;;;;;;2.95;1.50;;;;;;;26.31;15.95;99856.47;4942915;28;20027;-30
2024/02/06 10:52:06;;;;;;;4.15;1.83;;;;;;;26.20;16.18;99850.44;4951719;29;20027;-27
2024/02/06 10:54:36;;;;;;;5.47;1.88;;;;;;;25.78;16.18;99840.63;4944137;29;20020;-28
2024/02/06 10:57:06;;;;;;;3.03;1.60;;;;;;;25.86;16.21;99832.56;4955713;29;20206;-28
2024/02/06 10:59:39;;;;;;;3.08;1.42;;;;;;;26.48;15.92;99818.47;4955852;29;20026;-29
2024/02/06 11:02:20;;;;;;;3.13;1.60;;;;;;;26.68;16.06;99821.84;4955649;29;20171;-28
2024/02/06 11:04:46;;;;;;;9.70;2.10;;;;;;;26.98;16.09;99805.84;4954967;29;20436;-29
2024/02/06 11:07:15;;;;;;;3.53;2.22;;;;;;;25.74;16.63;99813.16;4955501;29;20027;-28
2024/02/06 11:09:41;;;;;;;5.95;2.17;;;;;;;25.59;16.70;99813.47;4955330;29;20031;-28
2024/02/06 11:12:09;;;;;;;5.47;1.90;;;;;;;25.87;16.39;99809.63;4955208;29;20468;-28
2024/02/06 11:14:39;;;;;;;4.15;1.90;;;;;;;25.58;16.58;99793.59;4955107;29;20077;-29
2024/02/06 11:17:06;;;;;;;4.25;2.05;;;;;;;25.23;17.03;99804.06;4955251;29;20058;-29
2024/02/06 11:19:47;;;;;;;4.78;2.03;;;;;;;25.22;16.66;99796.16;4955072;29;20476;-27
2024/02/06 11:22:23;;;;;;;2.97;1.80;;;;;;;25.04;16.77;99792.41;4954847;29;20039;-27
2024/02/06 11:24:50;;;;;;;4.32;1.85;;;;;;;25.12;16.71;99786.25;4954591;29;20027;-28
2024/02/06 11:27:16;;;;;;;4.00;1.88;;;;;;;25.36;16.85;99780.69;4954503;29;20034;-28